Amberg, Wisconsin
Current Conditions -  °F | °C
As of 7:54 PM on Saturday 25 Oct 2014 (Local Time) from KIMT Reporting Station
Clear Clear  
Wind Chill: 53°   Ceiling: Unl
Heat Index: 53°   Visibility: 10mi
Dew Point: 23°   Wind: 15mph
Humidity: 31%   Direction: 300°WNW
Pressure: 29.84"   Gusts: 23mph
Location:  45.5°N, 87.99°W
Report Text: KIMT 260054Z AUTO 30013G20KT 10SM CLR 12/M05 A2984 RMK AO2 SLP109 T01171050
Loading
Personal Weather Stations






























Interactive Weather Map
Tropical Storm Tracking
New forecast layout! Learn more

10-Day Weather Forecast

Advertisements
Track Severe Weather on mobile